Time;durP1;ratioP1;P1;durP2;ratioP2;P2;SDS_P1;SDS_P2;PMS_P1;PMS_P2;Temp;Humidity;BMP_temperature;BMP_pressure;BME280_temperature;BME280_humidity;BME280_pressure;Samples;Min_cycle;Max_cycle;Signal;HPM_P1;HPM_P2
2022/08/12 04:02:37;;;;;;;2.50;2.30;;;9.80;96.30;;;;;;5030413;23;20506;-79
2022/08/12 04:05:03;;;;;;;8.60;2.77;;;9.70;96.30;;;;;;5033673;28;20426;-78
2022/08/12 04:07:30;;;;;;;10.20;2.23;;;9.70;96.30;;;;;;5033279;28;20427;-77
2022/08/12 04:09:57;;;;;;;4.13;2.03;;;9.70;96.30;;;;;;5032979;28;20255;-77
2022/08/12 04:15:12;;;;;;;3.83;2.43;;;9.80;96.30;;;;;;5034364;28;20390;-77
2022/08/12 04:17:39;;;;;;;9.63;2.40;;;9.80;96.30;;;;;;5034387;28;20473;-79
2022/08/12 04:20:08;;;;;;;3.50;2.37;;;9.90;96.30;;;;;;5031637;28;20466;-78
2022/08/12 04:22:35;;;;;;;4.77;1.90;;;9.90;96.30;;;;;;5033479;28;20399;-77
2022/08/12 04:25:01;;;;;;;5.50;2.10;;;9.90;96.30;;;;;;5033310;28;20442;-78
2022/08/12 04:27:30;;;;;;;4.70;2.73;;;10.00;96.30;;;;;;5033330;28;20457;-78
2022/08/12 04:29:56;;;;;;;9.30;2.00;;;10.10;96.30;;;;;;5032793;28;20422;-77
2022/08/12 04:32:22;;;;;;;5.00;2.30;;;10.20;96.30;;;;;;5031855;28;20435;-78
2022/08/12 04:34:48;;;;;;;3.97;2.37;;;10.90;96.30;;;;;;5032984;28;20411;-78
2022/08/12 04:37:15;;;;;;;3.67;2.20;;;12.10;96.30;;;;;;5033175;28;20259;-77
2022/08/12 04:39:41;;;;;;;11.23;2.37;;;13.40;96.30;;;;;;5032162;28;20508;-78
2022/08/12 04:42:07;;;;;;;4.40;2.00;;;14.40;96.30;;;;;;5031552;28;20458;-80
2022/08/12 04:44:32;;;;;;;4.43;2.20;;;15.40;96.30;;;;;;5032954;28;20485;-78
2022/08/12 04:46:58;;;;;;;2.87;1.93;;;16.50;96.30;;;;;;5033002;28;20173;-78
2022/08/12 04:49:25;;;;;;;5.90;2.00;;;17.40;96.30;;;;;;5032263;28;20179;-78
2022/08/12 04:51:51;;;;;;;13.13;2.27;;;17.90;95.30;;;;;;5032807;28;20199;-78
2022/08/12 04:54:17;;;;;;;7.73;2.40;;;17.50;96.30;;;;;;5032825;28;20411;-78
2022/08/12 04:56:43;;;;;;;5.63;2.10;;;18.10;95.10;;;;;;5032762;28;20251;-78
2022/08/12 04:59:10;;;;;;;2.80;2.10;;;18.40;92.80;;;;;;5032179;28;20180;-78
2022/08/12 05:01:36;;;;;;;2.50;1.43;;;17.90;93.30;;;;;;5032459;28;20484;-79
2022/08/12 05:04:02;;;;;;;3.47;1.90;;;17.20;95.90;;;;;;5032607;28;20898;-77
2022/08/12 05:06:27;;;;;;;2.20;2.00;;;16.70;96.30;;;;;;5032598;28;20164;-77
2022/08/12 05:09:00;;;;;;;3.97;1.80;;;16.10;96.30;;;;;;5031941;28;20407;-78
2022/08/12 05:11:26;;;;;;;4.50;1.90;;;15.60;96.30;;;;;;5031156;28;20286;-77
2022/08/12 05:13:58;;;;;;;2.63;2.00;;;14.90;96.30;;;;;;5032519;28;20906;-77
2022/08/12 05:16:23;;;;;;;2.17;1.80;;;14.40;96.30;;;;;;5032498;28;20422;-77
2022/08/12 05:18:49;;;;;;;6.03;1.77;;;14.40;96.30;;;;;;5029792;28;20964;-78
2022/08/12 05:21:14;;;;;;;3.60;1.87;;;14.40;96.30;;;;;;5032222;28;20303;-77
2022/08/12 05:23:41;;;;;;;5.00;1.83;;;14.20;96.30;;;;;;5032329;28;20251;-77
2022/08/12 05:26:08;;;;;;;2.80;2.13;;;14.20;96.30;;;;;;5032244;28;20171;-77
2022/08/12 05:28:34;;;;;;;1.93;1.67;;;14.20;96.30;;;;;;5031779;28;20411;-77
2022/08/12 05:31:00;;;;;;;2.90;2.10;;;14.30;96.30;;;;;;5030896;28;20508;-77
2022/08/12 05:33:38;;;;;;;5.97;2.60;;;14.20;96.30;;;;;;5032196;28;20222;-77
2022/08/12 05:36:11;;;;;;;2.20;2.00;;;13.90;96.30;;;;;;5030972;28;20461;-77
2022/08/12 05:38:55;;;;;;;3.13;2.30;;;14.30;96.30;;;;;;5031658;28;20492;-77
2022/08/12 05:41:21;;;;;;;4.03;1.90;;;15.70;96.30;;;;;;5031860;28;20464;-78
2022/08/12 05:44:07;;;;;;;3.67;1.80;;;17.60;96.30;;;;;;5032084;28;20431;-78
2022/08/12 05:46:34;;;;;;;3.30;1.97;;;19.00;94.30;;;;;;5032159;28;20419;-78
2022/08/12 05:49:00;;;;;;;2.20;1.93;;;20.50;88.40;;;;;;5031420;28;20431;-79
2022/08/12 05:51:28;;;;;;;5.00;2.07;;;21.90;84.40;;;;;;5030617;28;20471;-78
2022/08/12 05:53:54;;;;;;;11.20;1.90;;;23.20;80.80;;;;;;5032050;28;20254;-79
2022/08/12 05:56:23;;;;;;;2.33;1.77;;;24.30;77.10;;;;;;5031940;28;20417;-78
2022/08/12 05:58:50;;;;;;;3.43;1.97;;;24.40;77.10;;;;;;5031909;28;20419;-78
2022/08/12 06:01:16;;;;;;;3.00;1.70;;;25.10;74.80;;;;;;5030365;28;20525;-80
2022/08/12 06:03:42;;;;;;;2.70;2.10;;;25.40;73.40;;;;;;5031899;28;20469;-80
2022/08/12 06:06:09;;;;;;;4.27;1.90;;;26.10;72.70;;;;;;5031830;28;20226;-80
2022/08/12 06:08:35;;;;;;;5.03;2.13;;;25.90;71.90;;;;;;5031306;28;20928;-78
2022/08/12 06:11:04;;;;;;;2.97;1.80;;;24.80;74.70;;;;;;5031757;28;20434;-78
2022/08/12 06:13:33;;;;;;;3.10;2.10;;;26.20;72.20;;;;;;5031842;28;20180;-80
2022/08/12 06:15:59;;;;;;;7.10;1.60;;;26.10;72.20;;;;;;5031824;28;20465;-79
2022/08/12 06:18:25;;;;;;;4.63;2.10;;;26.90;70.40;;;;;;5031319;28;20909;-79
2022/08/12 06:20:56;;;;;;;4.63;1.80;;;27.30;69.40;;;;;;5031705;28;20686;-79
2022/08/12 06:23:27;;;;;;;4.97;1.70;;;28.10;68.30;;;;;;5031799;28;20560;-79
2022/08/12 06:25:54;;;;;;;6.20;1.67;;;28.80;66.70;;;;;;5031718;28;20390;-78
2022/08/12 06:28:21;;;;;;;3.15;1.90;;;29.10;67.00;;;;;;5031204;28;20418;-79
2022/08/12 06:30:47;;;;;;;3.60;1.42;;;29.00;66.90;;;;;;5035039;28;20654;-81
2022/08/12 06:33:13;;;;;;;4.20;2.03;;;29.10;66.00;;;;;;5034223;28;20186;-79
2022/08/12 06:35:43;;;;;;;7.70;1.65;;;29.50;65.60;;;;;;5035336;28;20567;-79
2022/08/12 06:38:24;;;;;;;3.95;1.80;;;28.90;65.90;;;;;;5034914;28;20185;-78
2022/08/12 06:43:37;;;;;;;7.68;1.63;;;28.40;66.80;;;;;;5035676;28;20167;-78
2022/08/12 06:46:03;;;;;;;7.38;1.60;;;28.50;66.80;;;;;;5035232;28;20175;-80
2022/08/12 06:48:30;;;;;;;7.43;1.77;;;29.40;65.50;;;;;;5034788;28;20176;-78
2022/08/12 06:50:56;;;;;;;2.30;1.63;;;30.30;63.70;;;;;;5035016;28;20215;-80
2022/08/12 06:53:23;;;;;;;7.57;1.60;;;30.40;63.70;;;;;;5035057;28;20190;-81
2022/08/12 06:55:50;;;;;;;2.97;1.63;;;30.30;63.80;;;;;;5035016;28;20171;-78
2022/08/12 06:58:19;;;;;;;2.90;1.65;;;30.90;62.60;;;;;;5033359;28;20211;-79
2022/08/12 07:00:45;;;;;;;3.08;1.50;;;31.10;61.60;;;;;;5034730;28;20337;-79
2022/08/12 07:03:16;;;;;;;1.75;1.30;;;30.30;62.10;;;;;;5034916;28;20156;-79
2022/08/12 07:05:42;;;;;;;2.97;1.20;;;30.80;61.10;;;;;;5033643;28;20712;-78
2022/08/12 07:08:08;;;;;;;1.67;1.30;;;29.60;63.40;;;;;;5034422;28;20176;-78
2022/08/12 07:10:39;;;;;;;2.50;1.23;;;30.40;62.40;;;;;;5034577;28;20196;-78
2022/08/12 07:13:04;;;;;;;2.70;1.40;;;30.90;60.60;;;;;;5034696;28;20183;-79
2022/08/12 07:15:30;;;;;;;2.33;1.35;;;31.50;61.00;;;;;;5034733;28;20240;-78
2022/08/12 07:18:16;;;;;;;4.80;1.40;;;30.70;60.90;;;;;;5034091;28;20187;-79
2022/08/12 07:20:43;;;;;;;6.47;1.75;;;31.00;61.80;;;;;;5033275;28;20214;-79
2022/08/12 07:23:10;;;;;;;11.48;1.63;;;31.70;60.50;;;;;;5034605;28;20650;-79
2022/08/12 07:25:38;;;;;;;5.65;1.52;;;31.90;59.70;;;;;;5034371;28;20203;-78
2022/08/12 07:28:08;;;;;;;1.88;1.05;;;32.70;58.40;;;;;;5032813;28;20266;-79
2022/08/12 07:30:37;;;;;;;6.15;1.20;;;33.00;58.50;;;;;;5034383;28;20196;-79
2022/08/12 07:33:07;;;;;;;2.03;1.40;;;32.10;59.50;;;;;;5034322;28;20259;-79
2022/08/12 07:35:41;;;;;;;5.68;1.95;;;32.00;58.50;;;;;;5033352;28;20545;-79
2022/08/12 07:38:24;;;;;;;4.13;1.40;;;31.20;60.70;;;;;;5033971;28;20228;-80
2022/08/12 07:40:56;;;;;;;1.88;1.00;;;30.60;60.30;;;;;;5033192;28;20203;-81
2022/08/12 07:43:22;;;;;;;2.67;1.10;;;29.90;61.60;;;;;;5034306;28;20530;-78
2022/08/12 07:45:48;;;;;;;1.93;0.90;;;28.20;63.10;;;;;;5034217;28;20175;-79
2022/08/12 07:48:14;;;;;;;1.77;0.83;;;27.00;65.90;;;;;;5033481;28;20167;-78
2022/08/12 07:50:40;;;;;;;14.13;1.57;;;26.20;67.70;;;;;;5034079;28;20434;-78
2022/08/12 07:53:05;;;;;;;2.30;1.17;;;25.60;68.50;;;;;;5034051;28;20418;-80
2022/08/12 07:55:31;;;;;;;1.10;0.90;;;24.90;70.90;;;;;;5033786;28;20233;-77
2022/08/12 07:57:58;;;;;;;1.27;1.00;;;24.00;71.80;;;;;;5032247;28;20179;-78
2022/08/12 08:00:33;;;;;;;2.70;1.20;;;23.80;72.70;;;;;;5033631;28;20196;-77
2022/08/12 08:02:58;;;;;;;1.13;0.90;;;23.40;73.30;;;;;;5033771;28;20401;-78
2022/08/12 08:05:27;;;;;;;2.53;1.20;;;23.00;73.80;;;;;;5033785;28;20406;-79
2022/08/12 08:07:59;;;;;;;1.20;0.80;;;22.80;74.90;;;;;;5033292;28;20164;-81
2022/08/12 08:10:25;;;;;;;2.00;1.00;;;23.00;74.40;;;;;;5033524;28;20399;-78
2022/08/12 08:12:53;;;;;;;0.90;0.70;;;23.20;74.30;;;;;;5033708;28;20477;-77
2022/08/12 08:15:25;;;;;;;2.13;0.87;;;22.70;73.00;;;;;;5033680;28;20199;-78
2022/08/12 08:18:03;;;;;;;1.27;0.87;;;22.80;72.90;;;;;;5033211;28;20906;-79
2022/08/12 08:20:32;;;;;;;2.50;0.90;;;23.10;73.20;;;;;;5033469;28;20481;-78
2022/08/12 08:23:05;;;;;;;1.40;0.87;;;23.60;72.40;;;;;;5033567;28;20770;-77
2022/08/12 08:25:33;;;;;;;2.00;0.70;;;23.30;72.40;;;;;;5032182;28;20490;-78
2022/08/12 08:28:00;;;;;;;1.33;0.80;;;24.40;71.80;;;;;;5032883;28;20921;-78
2022/08/12 08:30:27;;;;;;;1.53;0.80;;;25.20;69.50;;;;;;5033351;28;20411;-78
2022/08/12 08:32:53;;;;;;;3.97;0.90;;;26.10;68.50;;;;;;5033325;28;20415;-78
2022/08/12 08:35:18;;;;;;;2.07;0.80;;;26.90;65.80;;;;;;5033107;28;20451;-78
2022/08/12 08:37:45;;;;;;;1.30;0.80;;;27.00;64.80;;;;;;5033186;28;20176;-78
2022/08/12 08:42:55;;;;;;;1.17;1.00;;;27.40;65.30;;;;;;5033167;28;20390;-77
2022/08/12 08:45:20;;;;;;;1.00;0.90;;;28.20;63.40;;;;;;5033026;28;20415;-77
2022/08/12 08:47:47;;;;;;;1.40;0.90;;;27.90;63.30;;;;;;5032869;28;20537;-78
2022/08/12 08:50:14;;;;;;;1.10;0.80;;;27.50;63.90;;;;;;5032603;28;20168;-77
2022/08/12 08:52:40;;;;;;;2.00;0.90;;;27.80;64.20;;;;;;5032909;28;20936;-78
2022/08/12 08:55:12;;;;;;;1.00;0.70;;;27.50;64.70;;;;;;5032770;28;20406;-78
2022/08/12 08:57:39;;;;;;;0.90;0.70;;;27.90;64.60;;;;;;5032875;28;20499;-80
2022/08/12 09:00:06;;;;;;;1.80;1.00;;;28.10;63.00;;;;;;5032172;28;20470;-77
2022/08/12 09:02:32;;;;;;;1.00;0.90;;;27.60;63.30;;;;;;5032475;28;20456;-78
2022/08/12 09:04:58;;;;;;;2.60;0.90;;;26.70;65.50;;;;;;5032702;28;20411;-77
2022/08/12 09:07:26;;;;;;;1.37;1.10;;;26.90;66.20;;;;;;5032641;28;20456;-78
2022/08/12 09:09:53;;;;;;;2.37;0.90;;;27.20;65.70;;;;;;5031844;28;20172;-77
2022/08/12 09:15:03;;;;;;;11.63;0.97;;;27.30;66.60;;;;;;5032599;28;20421;-78
2022/08/12 09:17:32;;;;;;;1.00;0.87;;;27.80;65.40;;;;;;5032552;28;20406;-77
2022/08/12 09:19:58;;;;;;;1.50;0.90;;;27.70;63.90;;;;;;5031965;28;20453;-77
2022/08/12 09:22:24;;;;;;;11.67;1.40;;;27.80;65.00;;;;;;5032607;28;20470;-77
2022/08/12 09:24:51;;;;;;;1.10;0.83;;;28.20;64.80;;;;;;5032317;28;20395;-77
2022/08/12 09:27:17;;;;;;;2.00;0.90;;;27.30;64.20;;;;;;5032310;28;20202;-77
2022/08/12 09:29:44;;;;;;;2.87;0.90;;;27.90;64.70;;;;;;5031827;28;20406;-78
2022/08/12 09:32:10;;;;;;;1.10;0.80;;;27.50;66.10;;;;;;5032178;28;20279;-77
2022/08/12 09:34:35;;;;;;;1.10;0.80;;;26.90;66.50;;;;;;5032196;28;20493;-78
2022/08/12 09:37:02;;;;;;;1.13;0.80;;;26.80;67.00;;;;;;5032252;28;20187;-77
2022/08/12 09:39:29;;;;;;;5.57;1.17;;;26.20;68.10;;;;;;5031663;28;20287;-79
2022/08/12 09:47:27;;;;;;;6.60;2.20;;;26.10;68.80;;;;;;5032100;28;20468;-77
2022/08/12 09:49:53;;;;;;;2.07;0.80;;;25.60;67.50;;;;;;5031536;28;20415;-77
2022/08/12 09:52:19;;;;;;;2.17;0.87;;;25.30;69.30;;;;;;5031930;28;20436;-78
2022/08/12 09:54:45;;;;;;;1.80;1.10;;;25.20;70.00;;;;;;5030687;28;20577;-77
2022/08/12 09:57:16;;;;;;;3.17;0.97;;;24.80;71.20;;;;;;5032019;28;20411;-78
2022/08/12 09:59:42;;;;;;;1.50;0.93;;;24.60;72.30;;;;;;5031470;28;20271;-77
2022/08/12 10:02:11;;;;;;;3.27;0.80;;;24.20;73.40;;;;;;5031874;28;20458;-77
2022/08/12 10:04:41;;;;;;;1.40;1.27;;;24.10;73.70;;;;;;5033578;28;20402;-79
2022/08/12 10:07:06;;;;;;;1.60;0.90;;;24.20;74.00;;;;;;5034743;28;20981;-77
2022/08/12 10:09:32;;;;;;;1.07;0.80;;;24.30;74.00;;;;;;5035352;28;20419;-77
2022/08/12 10:14:43;;;;;;;1.37;0.90;;;25.70;71.40;;;;;;5036000;28;20171;-77
2022/08/12 10:17:08;;;;;;;1.77;0.93;;;26.00;69.90;;;;;;5036595;28;20414;-77
2022/08/12 10:19:34;;;;;;;4.40;1.10;;;26.30;69.30;;;;;;5036270;28;20963;-76
2022/08/12 10:22:00;;;;;;;2.23;1.10;;;26.10;69.90;;;;;;5035638;28;20195;-78
2022/08/12 10:24:25;;;;;;;2.10;0.77;;;25.60;70.80;;;;;;5035598;28;20291;-77
2022/08/12 10:29:35;;;;;;;1.20;1.00;;;24.20;73.60;;;;;;5035130;28;20241;-76
2022/08/12 10:32:02;;;;;;;1.60;1.00;;;24.00;73.50;;;;;;5035490;28;21120;-77
2022/08/12 10:34:28;;;;;;;1.30;1.20;;;24.70;72.30;;;;;;5034267;28;20567;-77
2022/08/12 10:36:59;;;;;;;1.33;1.00;;;24.60;72.80;;;;;;5035458;28;20422;-77
2022/08/12 10:39:31;;;;;;;2.70;1.30;;;24.10;72.50;;;;;;5033549;28;20445;-76
2022/08/12 10:44:41;;;;;;;8.90;1.10;;;24.00;73.70;;;;;;5035611;28;20525;-76
2022/08/12 10:47:08;;;;;;;1.30;1.20;;;24.30;72.80;;;;;;5035304;28;20414;-76
2022/08/12 10:49:35;;;;;;;1.10;1.00;;;24.80;72.20;;;;;;5034674;28;20169;-76
2022/08/12 10:52:01;;;;;;;1.33;1.10;;;25.70;70.30;;;;;;5035120;28;20937;-77
2022/08/12 10:54:28;;;;;;;1.83;1.30;;;25.90;70.00;;;;;;5033624;28;20406;-77
2022/08/12 10:56:56;;;;;;;2.57;1.40;;;26.40;69.90;;;;;;5035089;28;20776;-77
2022/08/12 10:59:22;;;;;;;1.70;1.23;;;26.30;69.60;;;;;;5034459;28;20469;-77
2022/08/12 11:01:48;;;;;;;4.70;1.10;;;25.90;70.10;;;;;;5034785;28;20462;-77
2022/08/12 11:04:15;;;;;;;1.37;1.13;;;25.80;70.80;;;;;;5034968;28;20168;-77
2022/08/12 11:06:46;;;;;;;2.03;1.30;;;25.20;71.80;;;;;;5034948;28;20407;-76
2022/08/12 11:09:16;;;;;;;3.03;0.90;;;24.80;72.80;;;;;;5034367;28;20419;-77
2022/08/12 11:11:43;;;;;;;2.70;1.27;;;25.00;72.90;;;;;;5034663;28;20446;-77
2022/08/12 11:14:08;;;;;;;1.70;0.90;;;24.80;72.60;;;;;;5034822;28;20411;-77
2022/08/12 11:16:34;;;;;;;1.20;0.90;;;24.80;72.60;;;;;;5033606;28;20413;-76
2022/08/12 11:18:59;;;;;;;1.27;1.03;;;24.50;73.10;;;;;;5032754;28;20642;-77
2022/08/12 11:21:25;;;;;;;7.67;1.20;;;24.30;73.30;;;;;;5034572;28;20243;-77
2022/08/12 11:23:50;;;;;;;2.23;1.43;;;24.70;74.10;;;;;;5034645;28;20283;-77
2022/08/12 11:26:16;;;;;;;3.03;0.90;;;24.90;72.60;;;;;;5034531;28;20227;-77
2022/08/12 11:28:41;;;;;;;1.10;1.00;;;24.90;72.80;;;;;;5034095;28;20175;-80
2022/08/12 11:31:08;;;;;;;1.70;1.10;;;25.40;70.70;;;;;;5034441;28;20190;-77
2022/08/12 11:33:35;;;;;;;2.10;1.00;;;25.70;70.90;;;;;;5034406;28;20172;-77
2022/08/12 11:36:06;;;;;;;2.93;0.90;;;26.10;69.60;;;;;;5033076;28;20993;-77
2022/08/12 11:38:31;;;;;;;6.33;1.20;;;24.90;71.10;;;;;;5033836;28;20411;-76
2022/08/12 11:40:57;;;;;;;1.00;0.90;;;24.90;71.50;;;;;;5034013;28;20464;-77
2022/08/12 11:43:22;;;;;;;4.40;1.00;;;25.40;71.60;;;;;;5033029;28;20176;-77
2022/08/12 11:45:48;;;;;;;1.27;1.17;;;26.30;69.80;;;;;;5034296;28;20179;-80
2022/08/12 11:48:14;;;;;;;1.90;1.40;;;26.10;69.00;;;;;;5033630;28;20168;-76
2022/08/12 11:50:42;;;;;;;3.10;1.10;;;26.10;69.30;;;;;;5032672;28;20191;-76
2022/08/12 11:53:07;;;;;;;2.10;1.23;;;26.90;68.40;;;;;;5034100;28;20172;-77
2022/08/12 11:55:34;;;;;;;1.37;1.00;;;27.20;67.80;;;;;;5033938;28;20561;-77
2022/08/12 11:57:59;;;;;;;2.00;1.40;;;27.10;67.70;;;;;;5033484;28;20184;-77
2022/08/12 12:00:25;;;;;;;2.50;0.90;;;27.20;68.10;;;;;;5033688;28;20810;-77
2022/08/12 12:02:50;;;;;;;5.50;0.93;;;26.60;68.90;;;;;;5033966;28;20171;-79
2022/08/12 12:05:16;;;;;;;4.30;1.10;;;25.80;69.80;;;;;;5033641;28;20664;-77
2022/08/12 12:07:43;;;;;;;2.30;1.20;;;25.20;71.50;;;;;;5033649;28;20172;-76
2022/08/12 12:10:11;;;;;;;4.97;1.00;;;25.00;72.40;;;;;;5032997;28;20246;-76
2022/08/12 12:12:36;;;;;;;2.90;0.97;;;25.10;72.00;;;;;;5033691;28;20502;-77
2022/08/12 12:15:03;;;;;;;5.43;1.30;;;25.00;71.90;;;;;;5032382;28;20522;-76
2022/08/12 12:17:29;;;;;;;1.30;1.20;;;25.00;72.50;;;;;;5033568;28;20519;-79
2022/08/12 12:19:54;;;;;;;1.10;1.00;;;25.00;72.20;;;;;;5032852;28;20414;-76
2022/08/12 12:22:20;;;;;;;1.23;0.90;;;24.80;72.50;;;;;;5033452;28;20184;-77
2022/08/12 12:24:47;;;;;;;1.77;1.50;;;25.00;72.30;;;;;;5033371;28;20175;-76
2022/08/12 12:27:16;;;;;;;4.43;1.10;;;25.30;71.80;;;;;;5033062;28;20415;-75
2022/08/12 12:29:42;;;;;;;7.30;1.40;;;25.10;71.70;;;;;;5033730;28;20438;-79
2022/08/12 12:32:07;;;;;;;1.33;1.23;;;24.60;72.20;;;;;;5034733;28;20435;-80
2022/08/12 12:34:33;;;;;;;2.50;1.13;;;24.40;73.10;;;;;;5033028;28;20204;-78
2022/08/12 12:36:58;;;;;;;4.90;1.80;;;24.10;74.10;;;;;;5034246;28;20211;-78
2022/08/12 12:39:24;;;;;;;5.10;1.30;;;24.10;74.80;;;;;;5034158;28;20169;-79
2022/08/12 12:41:49;;;;;;;1.97;1.23;;;24.60;73.30;;;;;;5034949;28;20417;-79
2022/08/12 12:44:15;;;;;;;2.63;1.17;;;25.60;71.10;;;;;;5034977;28;20181;-79
2022/08/12 12:46:40;;;;;;;1.43;1.00;;;26.20;70.50;;;;;;5033668;28;20247;-80
2022/08/12 12:49:05;;;;;;;2.63;1.10;;;26.50;69.40;;;;;;5032385;28;20172;-76
2022/08/12 12:51:31;;;;;;;3.20;1.80;;;26.60;69.10;;;;;;5033150;28;20271;-76
2022/08/12 12:53:56;;;;;;;5.53;1.40;;;26.30;68.20;;;;;;5032964;28;20647;-77
2022/08/12 12:56:23;;;;;;;2.80;1.10;;;26.00;69.70;;;;;;5032719;28;20180;-77
2022/08/12 12:58:50;;;;;;;4.30;1.10;;;25.20;70.20;;;;;;5032305;28;20302;-78
2022/08/12 13:01:24;;;;;;;4.80;1.10;;;25.20;71.20;;;;;;5031266;28;20498;-77
2022/08/12 13:03:52;;;;;;;2.20;1.30;;;26.10;69.70;;;;;;5032571;28;20390;-77
2022/08/12 13:06:24;;;;;;;4.70;1.43;;;26.40;69.40;;;;;;5032934;28;20432;-78
2022/08/12 13:08:52;;;;;;;3.13;1.73;;;27.20;68.30;;;;;;5033273;28;20429;-77
2022/08/12 13:11:20;;;;;;;3.10;1.63;;;27.60;67.70;;;;;;5032443;28;20492;-78
2022/08/12 13:13:48;;;;;;;3.60;1.60;;;27.10;68.20;;;;;;5031361;28;20442;-78
2022/08/12 13:16:19;;;;;;;2.27;1.40;;;27.00;68.30;;;;;;5031296;28;20419;-77
2022/08/12 13:18:47;;;;;;;1.70;1.20;;;26.50;69.00;;;;;;5033592;28;20406;-79
2022/08/12 13:21:16;;;;;;;1.30;1.00;;;25.80;70.40;;;;;;5034208;28;20462;-79
2022/08/12 13:23:45;;;;;;;1.40;1.20;;;25.40;71.20;;;;;;5032921;28;20418;-79
2022/08/12 13:26:12;;;;;;;3.00;1.27;;;25.20;71.80;;;;;;5034185;28;20406;-79
2022/08/12 13:28:43;;;;;;;3.30;1.03;;;25.00;72.20;;;;;;5033591;28;20402;-79
2022/08/12 13:31:09;;;;;;;1.70;1.40;;;25.00;72.50;;;;;;5033847;28;20427;-78
2022/08/12 13:33:35;;;;;;;1.67;1.10;;;25.20;71.50;;;;;;5033931;28;20411;-78
2022/08/12 13:36:02;;;;;;;2.77;1.50;;;25.90;71.30;;;;;;5033937;28;20407;-79
2022/08/12 13:38:42;;;;;;;4.00;1.27;;;26.00;70.00;;;;;;5032486;28;20196;-79
2022/08/12 13:41:31;;;;;;;1.47;1.27;;;25.50;71.40;;;;;;5032214;28;20470;-79
2022/08/12 13:43:55;;;;;;;2.53;1.27;;;25.50;70.90;;;;;;5033737;28;20914;-78
2022/08/12 13:46:21;;;;;;;2.50;1.60;;;25.40;70.90;;;;;;5033725;28;20418;-79
2022/08/12 13:48:47;;;;;;;4.30;1.80;;;25.80;71.20;;;;;;5032929;28;20643;-78
2022/08/12 13:51:13;;;;;;;3.20;1.10;;;26.50;69.20;;;;;;5033287;28;20520;-79
2022/08/12 13:53:39;;;;;;;2.40;1.23;;;27.10;68.30;;;;;;5034242;28;20174;-79
2022/08/12 13:56:04;;;;;;;3.83;1.10;;;27.40;66.90;;;;;;5032542;28;20514;-79
2022/08/12 13:58:30;;;;;;;1.67;1.10;;;27.50;67.10;;;;;;5033196;28;20176;-79
2022/08/12 14:00:56;;;;;;;1.33;1.23;;;26.60;67.90;;;;;;5033506;28;20211;-79
2022/08/12 14:03:23;;;;;;;3.93;1.30;;;26.20;68.90;;;;;;5032975;28;20179;-78
2022/08/12 14:05:49;;;;;;;4.00;1.50;;;25.50;70.10;;;;;;5033438;28;20486;-79
2022/08/12 14:08:15;;;;;;;2.00;1.27;;;25.30;70.90;;;;;;5032750;28;20934;-79
2022/08/12 14:10:48;;;;;;;2.00;1.03;;;25.20;71.40;;;;;;5033054;28;20278;-79
2022/08/12 14:13:19;;;;;;;5.00;1.40;;;25.10;71.30;;;;;;5032339;28;20419;-79
2022/08/12 14:15:49;;;;;;;5.40;1.90;;;25.00;71.50;;;;;;5033588;28;20910;-79
2022/08/12 14:18:23;;;;;;;9.37;1.37;;;25.00;71.70;;;;;;5032742;28;20418;-79
2022/08/12 14:21:08;;;;;;;2.13;1.30;;;24.60;73.10;;;;;;5033134;28;20468;-79
2022/08/12 14:23:36;;;;;;;1.50;1.30;;;24.70;73.30;;;;;;5033314;28;20406;-79
2022/08/12 14:26:05;;;;;;;2.13;1.20;;;24.70;73.30;;;;;;5033761;28;20411;-79
2022/08/12 14:28:33;;;;;;;3.20;1.27;;;24.60;73.30;;;;;;5032557;28;20408;-79
2022/08/12 14:31:02;;;;;;;1.50;1.30;;;24.40;74.10;;;;;;5032847;28;20442;-79
2022/08/12 14:33:30;;;;;;;4.00;1.50;;;24.20;73.80;;;;;;5035052;28;20472;-78
2022/08/12 14:35:56;;;;;;;8.73;1.77;;;24.10;74.20;;;;;;5035071;28;20414;-78
2022/08/12 14:38:24;;;;;;;8.53;1.43;;;24.50;73.60;;;;;;5034512;28;20421;-78
2022/08/12 14:40:57;;;;;;;3.00;1.23;;;24.90;72.80;;;;;;5035066;28;20973;-77
2022/08/12 14:43:40;;;;;;;2.00;1.27;;;25.50;71.40;;;;;;5034649;28;20411;-78
2022/08/12 14:46:18;;;;;;;3.07;1.10;;;25.80;71.00;;;;;;5033367;28;20415;-79
2022/08/12 14:48:48;;;;;;;1.23;1.10;;;26.30;69.50;;;;;;5034271;28;20768;-79
2022/08/12 14:51:22;;;;;;;6.43;1.30;;;26.20;70.10;;;;;;5037570;28;20427;-79
2022/08/12 14:53:51;;;;;;;5.13;1.30;;;26.10;70.00;;;;;;5036754;28;20560;-79
2022/08/12 14:56:19;;;;;;;2.13;1.20;;;26.00;70.10;;;;;;5038782;28;20414;-78
2022/08/12 15:01:39;;;;;;;3.07;2.00;;;25.70;70.60;;;;;;5038256;28;20465;-78
2022/08/12 15:04:05;;;;;;;1.30;1.17;;;25.60;71.40;;;;;;5037422;28;20425;-78
2022/08/12 15:06:31;;;;;;;1.63;1.53;;;25.70;71.10;;;;;;5037315;28;20423;-79
2022/08/12 15:08:56;;;;;;;2.50;1.30;;;25.80;70.90;;;;;;5037572;28;20414;-78
2022/08/12 15:11:22;;;;;;;2.70;1.40;;;25.40;71.00;;;;;;5038498;28;20196;-78
2022/08/12 15:13:48;;;;;;;5.60;1.40;;;25.40;70.90;;;;;;5038669;28;20181;-78
2022/08/12 15:16:15;;;;;;;1.63;1.37;;;25.30;71.50;;;;;;5037288;28;20631;-78
2022/08/12 15:18:42;;;;;;;2.37;1.20;;;25.10;71.30;;;;;;5038108;28;20407;-79
2022/08/12 15:21:08;;;;;;;1.73;1.30;;;24.90;72.50;;;;;;5038045;28;20464;-78
2022/08/12 15:23:34;;;;;;;2.60;1.27;;;25.10;71.80;;;;;;5037916;28;20439;-79
2022/08/12 15:26:10;;;;;;;2.03;1.20;;;25.30;71.80;;;;;;5038025;28;20662;-78
2022/08/12 15:28:39;;;;;;;1.57;1.10;;;25.20;71.80;;;;;;5037713;28;20402;-79
2022/08/12 15:31:05;;;;;;;3.23;1.00;;;25.20;72.00;;;;;;5037514;28;20492;-79
2022/08/12 15:33:31;;;;;;;1.23;1.13;;;25.10;72.60;;;;;;5038462;28;20403;-79
2022/08/12 15:35:57;;;;;;;5.63;1.50;;;25.60;71.50;;;;;;5038518;28;20920;-80
2022/08/12 15:38:30;;;;;;;2.17;1.50;;;26.10;70.30;;;;;;5036460;28;20187;-79
2022/08/12 15:40:58;;;;;;;2.20;1.53;;;26.60;69.90;;;;;;5035615;28;20212;-80
2022/08/12 15:43:25;;;;;;;1.50;1.10;;;26.80;69.40;;;;;;5036291;28;20418;-80
2022/08/12 15:45:51;;;;;;;1.43;0.90;;;27.40;68.10;;;;;;5036864;28;20442;-79
2022/08/12 15:48:17;;;;;;;4.23;1.30;;;27.50;67.30;;;;;;5036060;28;20921;-78
2022/08/12 15:50:43;;;;;;;2.13;1.20;;;27.50;67.40;;;;;;5038109;28;20199;-78
2022/08/12 15:53:10;;;;;;;3.73;1.10;;;26.90;67.70;;;;;;5038379;28;20305;-78
2022/08/12 15:55:35;;;;;;;5.03;1.40;;;27.10;67.80;;;;;;5037737;28;20418;-78
2022/08/12 15:58:01;;;;;;;5.77;2.20;;;26.80;67.20;;;;;;5037334;28;20414;-78
2022/08/12 16:00:29;;;;;;;7.07;2.67;;;25.90;68.10;;;;;;5038073;28;20298;-78
2022/08/12 16:03:00;;;;;;;4.83;2.47;;;25.50;69.40;;;;;;5036893;28;20582;-79
2022/08/12 16:05:28;;;;;;;3.57;1.13;;;25.00;70.50;;;;;;5038105;28;20406;-78
2022/08/12 16:07:54;;;;;;;1.33;1.23;;;24.60;71.10;;;;;;5037137;28;20411;-79
2022/08/12 16:10:23;;;;;;;1.53;1.43;;;24.40;71.90;;;;;;5036100;28;20427;-78
2022/08/12 16:12:50;;;;;;;5.47;1.20;;;24.50;72.20;;;;;;5037637;28;20480;-79
2022/08/12 16:15:18;;;;;;;2.20;1.43;;;24.60;71.50;;;;;;5037594;28;20433;-78
2022/08/12 16:17:47;;;;;;;2.03;1.10;;;24.40;72.00;;;;;;5034620;28;20473;-76
2022/08/12 16:20:20;;;;;;;1.73;1.60;;;24.30;72.20;;;;;;5033011;28;20455;-77
2022/08/12 16:22:51;;;;;;;1.20;1.10;;;24.30;71.30;;;;;;5033535;28;20403;-77
2022/08/12 16:25:19;;;;;;;1.73;1.63;;;24.10;72.20;;;;;;5033371;28;20453;-77
2022/08/12 16:27:50;;;;;;;2.00;1.37;;;24.00;72.30;;;;;;5033355;28;20465;-77
2022/08/12 16:30:24;;;;;;;2.90;1.30;;;24.00;72.60;;;;;;5033420;28;20553;-79
2022/08/12 16:32:50;;;;;;;1.63;1.10;;;23.90;73.20;;;;;;5031975;28;20419;-77
2022/08/12 16:35:16;;;;;;;3.67;1.30;;;23.90;73.20;;;;;;5033254;28;20426;-77
2022/08/12 16:37:43;;;;;;;2.47;1.00;;;23.80;73.50;;;;;;5033247;28;20180;-77
2022/08/12 16:40:10;;;;;;;1.30;1.00;;;23.80;73.50;;;;;;5032416;28;20462;-79
2022/08/12 16:42:40;;;;;;;6.53;1.33;;;23.90;73.50;;;;;;5032951;28;20922;-77
2022/08/12 16:45:11;;;;;;;9.80;1.30;;;23.80;73.60;;;;;;5032992;28;20506;-77
2022/08/12 16:47:38;;;;;;;2.43;1.20;;;23.90;73.80;;;;;;5033050;28;20418;-78
2022/08/12 16:50:08;;;;;;;3.63;1.20;;;23.90;73.70;;;;;;5032315;28;20409;-77
2022/08/12 16:52:34;;;;;;;2.23;1.10;;;24.20;73.60;;;;;;5032864;28;20445;-77
2022/08/12 16:55:01;;;;;;;5.53;1.27;;;24.40;73.30;;;;;;5032746;28;20418;-77
2022/08/12 16:57:27;;;;;;;4.73;1.27;;;24.60;72.70;;;;;;5032762;28;20422;-76
2022/08/12 16:59:53;;;;;;;3.30;1.30;;;24.60;71.40;;;;;;5032161;28;20419;-80
2022/08/12 17:02:19;;;;;;;2.10;1.00;;;24.60;71.40;;;;;;5032618;28;20478;-77
2022/08/12 17:04:44;;;;;;;3.00;1.27;;;24.60;71.20;;;;;;5032645;28;20550;-77
2022/08/12 17:07:16;;;;;;;1.17;1.07;;;24.60;71.40;;;;;;5032760;28;20184;-77
2022/08/12 17:09:49;;;;;;;1.37;1.07;;;24.70;70.60;;;;;;5031975;28;20183;-77
2022/08/12 17:12:20;;;;;;;1.20;1.10;;;24.60;70.60;;;;;;5031279;28;20439;-77
2022/08/12 17:14:46;;;;;;;2.47;1.17;;;24.70;71.00;;;;;;5031585;28;20792;-80
2022/08/12 17:17:12;;;;;;;2.33;1.27;;;24.60;70.80;;;;;;5032398;28;20451;-78
2022/08/12 17:19:38;;;;;;;1.77;1.10;;;24.40;71.50;;;;;;5031875;28;20493;-77